sensor_id;sensor_type;location;lat;lon;timestamp;P1;durP1;ratioP1;P2;durP2;ratioP2
13425;SDS011;6785;57.918;12.530;2023-04-28T00:01:26;18.03;;;4.47;;
13425;SDS011;6785;57.918;12.530;2023-04-28T00:03:53;20.80;;;4.73;;
13425;SDS011;6785;57.918;12.530;2023-04-28T00:06:20;15.87;;;5.00;;
13425;SDS011;6785;57.918;12.530;2023-04-28T00:08:47;16.47;;;5.07;;
13425;SDS011;6785;57.918;12.530;2023-04-28T00:11:14;12.47;;;4.53;;
13425;SDS011;6785;57.918;12.530;2023-04-28T00:13:40;11.73;;;4.37;;
13425;SDS011;6785;57.918;12.530;2023-04-28T00:16:09;15.30;;;4.67;;
13425;SDS011;6785;57.918;12.530;2023-04-28T00:18:35;18.57;;;4.57;;
13425;SDS011;6785;57.918;12.530;2023-04-28T00:21:02;15.63;;;4.33;;
13425;SDS011;6785;57.918;12.530;2023-04-28T00:23:29;23.63;;;4.23;;
13425;SDS011;6785;57.918;12.530;2023-04-28T00:25:56;22.13;;;5.10;;
13425;SDS011;6785;57.918;12.530;2023-04-28T00:28:22;21.30;;;4.33;;
13425;SDS011;6785;57.918;12.530;2023-04-28T00:30:49;11.57;;;4.43;;
13425;SDS011;6785;57.918;12.530;2023-04-28T00:33:17;13.67;;;4.33;;
13425;SDS011;6785;57.918;12.530;2023-04-28T00:35:44;14.77;;;4.30;;
13425;SDS011;6785;57.918;12.530;2023-04-28T00:38:11;23.60;;;4.70;;
13425;SDS011;6785;57.918;12.530;2023-04-28T00:40:38;12.27;;;5.07;;
13425;SDS011;6785;57.918;12.530;2023-04-28T00:43:05;12.07;;;4.13;;
13425;SDS011;6785;57.918;12.530;2023-04-28T00:45:32;11.67;;;4.27;;
13425;SDS011;6785;57.918;12.530;2023-04-28T00:47:58;12.93;;;3.53;;
13425;SDS011;6785;57.918;12.530;2023-04-28T00:50:27;17.63;;;4.73;;
13425;SDS011;6785;57.918;12.530;2023-04-28T00:52:54;18.20;;;4.67;;
13425;SDS011;6785;57.918;12.530;2023-04-28T00:55:21;21.83;;;5.53;;
13425;SDS011;6785;57.918;12.530;2023-04-28T00:57:49;8.70;;;4.07;;
13425;SDS011;6785;57.918;12.530;2023-04-28T01:00:16;14.33;;;4.73;;
13425;SDS011;6785;57.918;12.530;2023-04-28T01:02:43;10.70;;;3.97;;
13425;SDS011;6785;57.918;12.530;2023-04-28T01:05:10;13.50;;;4.63;;
13425;SDS011;6785;57.918;12.530;2023-04-28T01:07:40;13.20;;;5.03;;
13425;SDS011;6785;57.918;12.530;2023-04-28T01:10:07;16.70;;;3.93;;
13425;SDS011;6785;57.918;12.530;2023-04-28T01:12:34;9.93;;;4.20;;
13425;SDS011;6785;57.918;12.530;2023-04-28T01:15:01;8.57;;;4.00;;
13425;SDS011;6785;57.918;12.530;2023-04-28T01:17:28;15.13;;;4.33;;
13425;SDS011;6785;57.918;12.530;2023-04-28T01:19:55;16.10;;;4.53;;
13425;SDS011;6785;57.918;12.530;2023-04-28T01:22:22;15.37;;;3.67;;
13425;SDS011;6785;57.918;12.530;2023-04-28T01:24:50;15.17;;;4.53;;
13425;SDS011;6785;57.918;12.530;2023-04-28T01:27:17;13.87;;;3.73;;
13425;SDS011;6785;57.918;12.530;2023-04-28T01:29:43;13.60;;;4.40;;
13425;SDS011;6785;57.918;12.530;2023-04-28T01:32:10;11.13;;;3.97;;
13425;SDS011;6785;57.918;12.530;2023-04-28T01:34:37;14.70;;;4.40;;
13425;SDS011;6785;57.918;12.530;2023-04-28T01:37:03;12.67;;;3.87;;
13425;SDS011;6785;57.918;12.530;2023-04-28T01:39:30;8.40;;;3.97;;
13425;SDS011;6785;57.918;12.530;2023-04-28T01:41:58;11.23;;;4.20;;
13425;SDS011;6785;57.918;12.530;2023-04-28T01:44:26;15.23;;;4.23;;
13425;SDS011;6785;57.918;12.530;2023-04-28T01:46:53;12.43;;;3.73;;
13425;SDS011;6785;57.918;12.530;2023-04-28T01:49:19;11.47;;;4.40;;
13425;SDS011;6785;57.918;12.530;2023-04-28T01:51:46;14.67;;;3.97;;
13425;SDS011;6785;57.918;12.530;2023-04-28T01:54:13;19.27;;;4.00;;
13425;SDS011;6785;57.918;12.530;2023-04-28T01:56:39;16.13;;;4.90;;
13425;SDS011;6785;57.918;12.530;2023-04-28T01:59:07;12.27;;;4.23;;
13425;SDS011;6785;57.918;12.530;2023-04-28T02:01:34;24.00;;;4.57;;
13425;SDS011;6785;57.918;12.530;2023-04-28T02:04:01;11.37;;;4.23;;
13425;SDS011;6785;57.918;12.530;2023-04-28T02:06:28;14.40;;;4.47;;
13425;SDS011;6785;57.918;12.530;2023-04-28T02:08:54;21.23;;;4.40;;
13425;SDS011;6785;57.918;12.530;2023-04-28T02:11:21;13.33;;;4.70;;
13425;SDS011;6785;57.918;12.530;2023-04-28T02:13:48;15.23;;;4.57;;
13425;SDS011;6785;57.918;12.530;2023-04-28T02:16:16;11.97;;;4.17;;
13425;SDS011;6785;57.918;12.530;2023-04-28T02:18:43;11.67;;;3.97;;
13425;SDS011;6785;57.918;12.530;2023-04-28T02:21:10;8.67;;;4.20;;
13425;SDS011;6785;57.918;12.530;2023-04-28T02:23:37;13.97;;;4.33;;
13425;SDS011;6785;57.918;12.530;2023-04-28T02:26:04;17.43;;;4.33;;
13425;SDS011;6785;57.918;12.530;2023-04-28T02:28:31;11.50;;;4.13;;
13425;SDS011;6785;57.918;12.530;2023-04-28T02:31:04;8.17;;;3.63;;
13425;SDS011;6785;57.918;12.530;2023-04-28T02:33:33;10.27;;;3.77;;
13425;SDS011;6785;57.918;12.530;2023-04-28T02:36:00;16.17;;;3.53;;
13425;SDS011;6785;57.918;12.530;2023-04-28T02:38:28;11.67;;;3.33;;
13425;SDS011;6785;57.918;12.530;2023-04-28T02:40:57;7.57;;;3.33;;
13425;SDS011;6785;57.918;12.530;2023-04-28T02:43:25;11.23;;;3.53;;
13425;SDS011;6785;57.918;12.530;2023-04-28T02:45:52;15.83;;;4.40;;
13425;SDS011;6785;57.918;12.530;2023-04-28T02:48:19;15.20;;;4.20;;
13425;SDS011;6785;57.918;12.530;2023-04-28T02:50:47;14.43;;;3.77;;
13425;SDS011;6785;57.918;12.530;2023-04-28T02:53:13;16.07;;;4.23;;
13425;SDS011;6785;57.918;12.530;2023-04-28T02:55:40;14.30;;;3.90;;
13425;SDS011;6785;57.918;12.530;2023-04-28T02:58:07;8.17;;;3.87;;
13425;SDS011;6785;57.918;12.530;2023-04-28T03:00:34;14.37;;;4.23;;
13425;SDS011;6785;57.918;12.530;2023-04-28T03:03:01;10.70;;;3.90;;
13425;SDS011;6785;57.918;12.530;2023-04-28T03:05:27;16.67;;;4.43;;
13425;SDS011;6785;57.918;12.530;2023-04-28T03:07:55;7.07;;;3.73;;
13425;SDS011;6785;57.918;12.530;2023-04-28T03:10:23;11.97;;;3.90;;
13425;SDS011;6785;57.918;12.530;2023-04-28T03:12:50;13.80;;;3.53;;
13425;SDS011;6785;57.918;12.530;2023-04-28T03:15:16;17.90;;;4.07;;
13425;SDS011;6785;57.918;12.530;2023-04-28T03:17:43;13.43;;;4.07;;
13425;SDS011;6785;57.918;12.530;2023-04-28T03:20:10;14.57;;;3.83;;
13425;SDS011;6785;57.918;12.530;2023-04-28T03:22:37;13.90;;;3.93;;
13425;SDS011;6785;57.918;12.530;2023-04-28T03:25:06;10.03;;;3.60;;
13425;SDS011;6785;57.918;12.530;2023-04-28T03:27:33;11.37;;;3.83;;
13425;SDS011;6785;57.918;12.530;2023-04-28T03:30:00;12.70;;;4.03;;
13425;SDS011;6785;57.918;12.530;2023-04-28T03:32:27;9.50;;;3.43;;
13425;SDS011;6785;57.918;12.530;2023-04-28T03:34:54;10.13;;;3.70;;
13425;SDS011;6785;57.918;12.530;2023-04-28T03:37:21;10.93;;;4.17;;
13425;SDS011;6785;57.918;12.530;2023-04-28T03:39:48;14.70;;;5.20;;
13425;SDS011;6785;57.918;12.530;2023-04-28T03:42:16;7.33;;;3.27;;
13425;SDS011;6785;57.918;12.530;2023-04-28T03:44:43;10.73;;;4.07;;
13425;SDS011;6785;57.918;12.530;2023-04-28T03:47:10;10.00;;;4.07;;
13425;SDS011;6785;57.918;12.530;2023-04-28T03:49:37;12.93;;;3.97;;
13425;SDS011;6785;57.918;12.530;2023-04-28T03:52:04;13.03;;;3.57;;
13425;SDS011;6785;57.918;12.530;2023-04-28T03:54:30;15.23;;;4.50;;
13425;SDS011;6785;57.918;12.530;2023-04-28T03:56:57;16.47;;;4.77;;
13425;SDS011;6785;57.918;12.530;2023-04-28T03:59:26;15.17;;;4.93;;
13425;SDS011;6785;57.918;12.530;2023-04-28T04:01:53;11.80;;;5.23;;
13425;SDS011;6785;57.918;12.530;2023-04-28T04:04:19;13.97;;;4.37;;
13425;SDS011;6785;57.918;12.530;2023-04-28T04:06:46;10.83;;;4.40;;
13425;SDS011;6785;57.918;12.530;2023-04-28T04:09:13;17.67;;;3.73;;
13425;SDS011;6785;57.918;12.530;2023-04-28T04:11:39;11.67;;;4.47;;
13425;SDS011;6785;57.918;12.530;2023-04-28T04:14:06;9.50;;;3.87;;
13425;SDS011;6785;57.918;12.530;2023-04-28T04:16:35;13.97;;;3.90;;
13425;SDS011;6785;57.918;12.530;2023-04-28T04:19:02;15.07;;;4.33;;
13425;SDS011;6785;57.918;12.530;2023-04-28T04:21:29;15.30;;;6.30;;
13425;SDS011;6785;57.918;12.530;2023-04-28T04:23:56;11.03;;;3.67;;
13425;SDS011;6785;57.918;12.530;2023-04-28T04:26:23;19.37;;;4.47;;
13425;SDS011;6785;57.918;12.530;2023-04-28T04:28:50;13.73;;;3.47;;
13425;SDS011;6785;57.918;12.530;2023-04-28T04:31:17;8.80;;;3.67;;
13425;SDS011;6785;57.918;12.530;2023-04-28T04:33:46;14.83;;;4.87;;
13425;SDS011;6785;57.918;12.530;2023-04-28T04:36:13;6.63;;;3.70;;
13425;SDS011;6785;57.918;12.530;2023-04-28T04:38:39;9.97;;;3.90;;
13425;SDS011;6785;57.918;12.530;2023-04-28T04:41:06;15.47;;;3.90;;
13425;SDS011;6785;57.918;12.530;2023-04-28T04:43:33;14.10;;;4.00;;
13425;SDS011;6785;57.918;12.530;2023-04-28T04:45:59;9.40;;;3.57;;
13425;SDS011;6785;57.918;12.530;2023-04-28T04:48:27;9.67;;;5.37;;
13425;SDS011;6785;57.918;12.530;2023-04-28T04:50:56;10.40;;;4.27;;
13425;SDS011;6785;57.918;12.530;2023-04-28T04:53:22;10.37;;;3.67;;
13425;SDS011;6785;57.918;12.530;2023-04-28T04:55:49;9.97;;;3.80;;
13425;SDS011;6785;57.918;12.530;2023-04-28T04:58:16;10.40;;;3.77;;
13425;SDS011;6785;57.918;12.530;2023-04-28T05:00:43;17.60;;;4.00;;
13425;SDS011;6785;57.918;12.530;2023-04-28T05:03:09;9.83;;;3.90;;
13425;SDS011;6785;57.918;12.530;2023-04-28T05:05:37;12.87;;;4.20;;
13425;SDS011;6785;57.918;12.530;2023-04-28T05:08:05;11.93;;;4.07;;
13425;SDS011;6785;57.918;12.530;2023-04-28T05:10:32;11.23;;;3.57;;
13425;SDS011;6785;57.918;12.530;2023-04-28T05:12:59;11.33;;;3.87;;
13425;SDS011;6785;57.918;12.530;2023-04-28T05:15:25;5.70;;;3.00;;
13425;SDS011;6785;57.918;12.530;2023-04-28T05:17:52;7.57;;;3.20;;
13425;SDS011;6785;57.918;12.530;2023-04-28T05:20:19;10.07;;;3.50;;
13425;SDS011;6785;57.918;12.530;2023-04-28T05:22:46;10.50;;;4.17;;
13425;SDS011;6785;57.918;12.530;2023-04-28T05:25:14;9.77;;;4.23;;
13425;SDS011;6785;57.918;12.530;2023-04-28T05:27:41;12.70;;;4.80;;
13425;SDS011;6785;57.918;12.530;2023-04-28T05:30:08;13.77;;;4.00;;
13425;SDS011;6785;57.918;12.530;2023-04-28T05:32:36;8.03;;;3.30;;
13425;SDS011;6785;57.918;12.530;2023-04-28T05:35:03;9.17;;;3.87;;
13425;SDS011;6785;57.918;12.530;2023-04-28T05:37:30;9.77;;;4.03;;
13425;SDS011;6785;57.918;12.530;2023-04-28T05:39:57;11.20;;;3.53;;
13425;SDS011;6785;57.918;12.530;2023-04-28T05:42:25;11.67;;;3.47;;
13425;SDS011;6785;57.918;12.530;2023-04-28T05:44:51;17.93;;;4.23;;
13425;SDS011;6785;57.918;12.530;2023-04-28T05:47:18;9.83;;;4.00;;
13425;SDS011;6785;57.918;12.530;2023-04-28T05:49:45;11.70;;;3.73;;
13425;SDS011;6785;57.918;12.530;2023-04-28T05:52:12;9.73;;;4.33;;
13425;SDS011;6785;57.918;12.530;2023-04-28T05:54:38;10.93;;;4.40;;
13425;SDS011;6785;57.918;12.530;2023-04-28T05:57:05;11.40;;;4.93;;
13425;SDS011;6785;57.918;12.530;2023-04-28T05:59:33;10.50;;;4.33;;
13425;SDS011;6785;57.918;12.530;2023-04-28T06:02:00;10.90;;;4.50;;
13425;SDS011;6785;57.918;12.530;2023-04-28T06:04:27;15.83;;;5.40;;
13425;SDS011;6785;57.918;12.530;2023-04-28T06:06:54;10.50;;;4.57;;
13425;SDS011;6785;57.918;12.530;2023-04-28T06:09:20;16.60;;;5.10;;
13425;SDS011;6785;57.918;12.530;2023-04-28T06:11:47;13.73;;;5.40;;
13425;SDS011;6785;57.918;12.530;2023-04-28T06:14:14;13.33;;;4.57;;
13425;SDS011;6785;57.918;12.530;2023-04-28T06:16:42;10.30;;;4.30;;
13425;SDS011;6785;57.918;12.530;2023-04-28T06:19:09;13.50;;;4.87;;
13425;SDS011;6785;57.918;12.530;2023-04-28T06:21:38;16.23;;;4.50;;
13425;SDS011;6785;57.918;12.530;2023-04-28T06:24:05;14.53;;;4.47;;
13425;SDS011;6785;57.918;12.530;2023-04-28T06:26:32;10.57;;;4.73;;
13425;SDS011;6785;57.918;12.530;2023-04-28T06:28:58;11.77;;;4.23;;
13425;SDS011;6785;57.918;12.530;2023-04-28T06:31:25;11.50;;;4.50;;
13425;SDS011;6785;57.918;12.530;2023-04-28T06:33:53;15.27;;;4.07;;
13425;SDS011;6785;57.918;12.530;2023-04-28T06:36:20;14.73;;;4.33;;
13425;SDS011;6785;57.918;12.530;2023-04-28T06:38:46;15.70;;;4.27;;
13425;SDS011;6785;57.918;12.530;2023-04-28T06:41:13;15.73;;;3.80;;
13425;SDS011;6785;57.918;12.530;2023-04-28T06:43:40;16.40;;;4.20;;
13425;SDS011;6785;57.918;12.530;2023-04-28T06:46:07;10.80;;;3.70;;
13425;SDS011;6785;57.918;12.530;2023-04-28T06:48:34;10.27;;;4.10;;
13425;SDS011;6785;57.918;12.530;2023-04-28T06:51:03;11.63;;;3.83;;
13425;SDS011;6785;57.918;12.530;2023-04-28T06:53:30;10.40;;;3.73;;
13425;SDS011;6785;57.918;12.530;2023-04-28T06:55:57;12.90;;;4.27;;
13425;SDS011;6785;57.918;12.530;2023-04-28T06:58:24;9.90;;;3.50;;
13425;SDS011;6785;57.918;12.530;2023-04-28T07:00:51;11.83;;;4.07;;
13425;SDS011;6785;57.918;12.530;2023-04-28T07:03:17;5.73;;;2.97;;
13425;SDS011;6785;57.918;12.530;2023-04-28T07:05:44;11.60;;;3.63;;
13425;SDS011;6785;57.918;12.530;2023-04-28T07:08:12;5.90;;;2.90;;
13425;SDS011;6785;57.918;12.530;2023-04-28T07:10:41;8.53;;;3.20;;
13425;SDS011;6785;57.918;12.530;2023-04-28T07:13:08;4.07;;;2.47;;
13425;SDS011;6785;57.918;12.530;2023-04-28T07:15:34;8.73;;;2.70;;
13425;SDS011;6785;57.918;12.530;2023-04-28T07:18:01;6.90;;;2.73;;
13425;SDS011;6785;57.918;12.530;2023-04-28T07:20:28;6.70;;;3.20;;
13425;SDS011;6785;57.918;12.530;2023-04-28T07:22:55;6.10;;;2.83;;
13425;SDS011;6785;57.918;12.530;2023-04-28T07:25:23;8.13;;;2.67;;
13425;SDS011;6785;57.918;12.530;2023-04-28T07:27:50;6.33;;;3.10;;
13425;SDS011;6785;57.918;12.530;2023-04-28T07:30:18;7.87;;;2.30;;
13425;SDS011;6785;57.918;12.530;2023-04-28T07:32:45;3.27;;;2.00;;
13425;SDS011;6785;57.918;12.530;2023-04-28T07:35:12;6.23;;;2.33;;
13425;SDS011;6785;57.918;12.530;2023-04-28T07:37:38;3.37;;;2.07;;
13425;SDS011;6785;57.918;12.530;2023-04-28T07:40:05;6.97;;;2.40;;
13425;SDS011;6785;57.918;12.530;2023-04-28T07:42:34;5.80;;;2.03;;
13425;SDS011;6785;57.918;12.530;2023-04-28T07:45:01;3.60;;;2.17;;
13425;SDS011;6785;57.918;12.530;2023-04-28T07:47:28;5.07;;;2.10;;
13425;SDS011;6785;57.918;12.530;2023-04-28T07:49:55;3.50;;;2.70;;
13425;SDS011;6785;57.918;12.530;2023-04-28T07:52:23;6.30;;;2.17;;
13425;SDS011;6785;57.918;12.530;2023-04-28T07:54:50;6.77;;;2.07;;
13425;SDS011;6785;57.918;12.530;2023-04-28T07:57:17;4.13;;;1.60;;
13425;SDS011;6785;57.918;12.530;2023-04-28T07:59:45;4.60;;;2.10;;
13425;SDS011;6785;57.918;12.530;2023-04-28T08:02:12;3.93;;;1.87;;
13425;SDS011;6785;57.918;12.530;2023-04-28T08:04:39;9.17;;;2.00;;
13425;SDS011;6785;57.918;12.530;2023-04-28T08:07:07;3.13;;;1.80;;
13425;SDS011;6785;57.918;12.530;2023-04-28T08:09:34;3.17;;;1.80;;
13425;SDS011;6785;57.918;12.530;2023-04-28T08:12:01;2.37;;;1.70;;
13425;SDS011;6785;57.918;12.530;2023-04-28T08:14:28;3.63;;;1.70;;
13425;SDS011;6785;57.918;12.530;2023-04-28T08:16:56;2.63;;;1.50;;
13425;SDS011;6785;57.918;12.530;2023-04-28T08:19:23;4.13;;;1.70;;
13425;SDS011;6785;57.918;12.530;2023-04-28T08:21:49;2.13;;;1.20;;
13425;SDS011;6785;57.918;12.530;2023-04-28T08:24:16;3.63;;;1.67;;
13425;SDS011;6785;57.918;12.530;2023-04-28T08:26:43;5.97;;;1.70;;
13425;SDS011;6785;57.918;12.530;2023-04-28T08:29:10;3.00;;;1.47;;
13425;SDS011;6785;57.918;12.530;2023-04-28T08:31:37;2.67;;;1.90;;
13425;SDS011;6785;57.918;12.530;2023-04-28T08:34:05;5.03;;;1.80;;
13425;SDS011;6785;57.918;12.530;2023-04-28T08:36:32;4.37;;;1.43;;
13425;SDS011;6785;57.918;12.530;2023-04-28T08:38:59;4.33;;;1.50;;
13425;SDS011;6785;57.918;12.530;2023-04-28T08:41:27;2.97;;;1.70;;
13425;SDS011;6785;57.918;12.530;2023-04-28T08:43:58;2.23;;;1.20;;
13425;SDS011;6785;57.918;12.530;2023-04-28T08:46:24;3.47;;;1.27;;
13425;SDS011;6785;57.918;12.530;2023-04-28T08:48:54;6.07;;;1.30;;
13425;SDS011;6785;57.918;12.530;2023-04-28T08:51:26;1.67;;;1.07;;
13425;SDS011;6785;57.918;12.530;2023-04-28T08:53:57;1.20;;;1.10;;
13425;SDS011;6785;57.918;12.530;2023-04-28T08:56:29;1.87;;;1.20;;
13425;SDS011;6785;57.918;12.530;2023-04-28T08:58:59;3.73;;;1.33;;
13425;SDS011;6785;57.918;12.530;2023-04-28T09:01:29;1.57;;;1.23;;
13425;SDS011;6785;57.918;12.530;2023-04-28T09:03:56;1.10;;;1.00;;
13425;SDS011;6785;57.918;12.530;2023-04-28T09:06:26;1.87;;;1.00;;
13425;SDS011;6785;57.918;12.530;2023-04-28T09:11:49;0.67;;;0.67;;
13425;SDS011;6785;57.918;12.530;2023-04-28T09:14:20;2.10;;;1.10;;
13425;SDS011;6785;57.918;12.530;2023-04-28T09:16:48;1.00;;;0.90;;
13425;SDS011;6785;57.918;12.530;2023-04-28T09:19:15;0.70;;;0.70;;
13425;SDS011;6785;57.918;12.530;2023-04-28T09:21:47;0.77;;;0.73;;
13425;SDS011;6785;57.918;12.530;2023-04-28T09:24:27;0.80;;;0.80;;
13425;SDS011;6785;57.918;12.530;2023-04-28T09:26:55;2.83;;;1.13;;
13425;SDS011;6785;57.918;12.530;2023-04-28T09:29:22;1.57;;;0.90;;
13425;SDS011;6785;57.918;12.530;2023-04-28T09:31:49;1.07;;;0.87;;
13425;SDS011;6785;57.918;12.530;2023-04-28T09:34:17;0.63;;;0.63;;
13425;SDS011;6785;57.918;12.530;2023-04-28T09:36:43;1.00;;;0.67;;
13425;SDS011;6785;57.918;12.530;2023-04-28T09:39:12;0.80;;;0.80;;
13425;SDS011;6785;57.918;12.530;2023-04-28T09:41:39;3.03;;;0.90;;
13425;SDS011;6785;57.918;12.530;2023-04-28T09:44:13;1.07;;;0.87;;
13425;SDS011;6785;57.918;12.530;2023-04-28T09:46:41;0.73;;;0.70;;
13425;SDS011;6785;57.918;12.530;2023-04-28T09:49:08;2.60;;;1.30;;
13425;SDS011;6785;57.918;12.530;2023-04-28T09:51:35;0.80;;;0.80;;
13425;SDS011;6785;57.918;12.530;2023-04-28T09:54:02;0.90;;;0.80;;
13425;SDS011;6785;57.918;12.530;2023-04-28T09:56:31;0.90;;;0.90;;
13425;SDS011;6785;57.918;12.530;2023-04-28T09:58:59;0.80;;;0.80;;
13425;SDS011;6785;57.918;12.530;2023-04-28T10:01:27;0.70;;;0.70;;
13425;SDS011;6785;57.918;12.530;2023-04-28T10:03:58;1.13;;;1.00;;
13425;SDS011;6785;57.918;12.530;2023-04-28T10:06:25;1.10;;;1.00;;
13425;SDS011;6785;57.918;12.530;2023-04-28T10:08:54;1.63;;;0.90;;
13425;SDS011;6785;57.918;12.530;2023-04-28T10:11:22;0.90;;;0.90;;
13425;SDS011;6785;57.918;12.530;2023-04-28T10:13:51;1.53;;;0.93;;
13425;SDS011;6785;57.918;12.530;2023-04-28T10:16:19;0.80;;;0.80;;
13425;SDS011;6785;57.918;12.530;2023-04-28T10:18:45;1.80;;;1.10;;
13425;SDS011;6785;57.918;12.530;2023-04-28T10:21:13;0.90;;;0.90;;
13425;SDS011;6785;57.918;12.530;2023-04-28T10:23:54;1.07;;;0.90;;
13425;SDS011;6785;57.918;12.530;2023-04-28T10:26:33;1.27;;;0.90;;
13425;SDS011;6785;57.918;12.530;2023-04-28T10:29:28;0.90;;;0.80;;
13425;SDS011;6785;57.918;12.530;2023-04-28T10:32:16;1.13;;;0.80;;
13425;SDS011;6785;57.918;12.530;2023-04-28T10:34:44;1.47;;;0.90;;
13425;SDS011;6785;57.918;12.530;2023-04-28T10:37:11;1.47;;;0.97;;
13425;SDS011;6785;57.918;12.530;2023-04-28T10:39:39;0.73;;;0.73;;
13425;SDS011;6785;57.918;12.530;2023-04-28T10:45:08;1.43;;;0.77;;
13425;SDS011;6785;57.918;12.530;2023-04-28T10:50:28;1.13;;;0.83;;
13425;SDS011;6785;57.918;12.530;2023-04-28T10:52:55;1.57;;;1.10;;
13425;SDS011;6785;57.918;12.530;2023-04-28T10:55:25;0.77;;;0.67;;
13425;SDS011;6785;57.918;12.530;2023-04-28T11:04:04;1.67;;;1.00;;
13425;SDS011;6785;57.918;12.530;2023-04-28T11:06:35;1.93;;;1.00;;
13425;SDS011;6785;57.918;12.530;2023-04-28T11:12:08;1.40;;;1.30;;
13425;SDS011;6785;57.918;12.530;2023-04-28T11:14:35;1.47;;;1.23;;
13425;SDS011;6785;57.918;12.530;2023-04-28T11:17:06;2.47;;;1.20;;
13425;SDS011;6785;57.918;12.530;2023-04-28T11:19:34;1.17;;;1.00;;
13425;SDS011;6785;57.918;12.530;2023-04-28T11:22:03;1.73;;;1.00;;
13425;SDS011;6785;57.918;12.530;2023-04-28T11:24:35;4.77;;;1.10;;
13425;SDS011;6785;57.918;12.530;2023-04-28T11:27:02;2.03;;;1.20;;
13425;SDS011;6785;57.918;12.530;2023-04-28T11:29:29;2.57;;;1.20;;
13425;SDS011;6785;57.918;12.530;2023-04-28T11:31:57;1.83;;;1.30;;
13425;SDS011;6785;57.918;12.530;2023-04-28T11:34:25;2.47;;;1.20;;
13425;SDS011;6785;57.918;12.530;2023-04-28T11:36:52;1.30;;;1.00;;
13425;SDS011;6785;57.918;12.530;2023-04-28T11:39:24;2.13;;;1.00;;
13425;SDS011;6785;57.918;12.530;2023-04-28T11:41:53;3.30;;;1.10;;
13425;SDS011;6785;57.918;12.530;2023-04-28T11:44:20;2.40;;;1.13;;
13425;SDS011;6785;57.918;12.530;2023-04-28T11:46:49;1.43;;;1.07;;
13425;SDS011;6785;57.918;12.530;2023-04-28T11:49:20;2.50;;;1.20;;
13425;SDS011;6785;57.918;12.530;2023-04-28T11:51:50;2.00;;;0.90;;
13425;SDS011;6785;57.918;12.530;2023-04-28T11:54:20;2.57;;;1.00;;
13425;SDS011;6785;57.918;12.530;2023-04-28T11:56:48;4.03;;;1.20;;
13425;SDS011;6785;57.918;12.530;2023-04-28T11:59:15;1.17;;;1.07;;
13425;SDS011;6785;57.918;12.530;2023-04-28T12:01:45;1.83;;;1.00;;
13425;SDS011;6785;57.918;12.530;2023-04-28T12:04:13;1.03;;;0.90;;
13425;SDS011;6785;57.918;12.530;2023-04-28T12:06:58;1.90;;;1.00;;
13425;SDS011;6785;57.918;12.530;2023-04-28T12:09:29;1.03;;;0.90;;
13425;SDS011;6785;57.918;12.530;2023-04-28T12:11:56;1.90;;;1.00;;
13425;SDS011;6785;57.918;12.530;2023-04-28T12:14:24;1.13;;;1.00;;
13425;SDS011;6785;57.918;12.530;2023-04-28T12:16:51;2.60;;;1.00;;
13425;SDS011;6785;57.918;12.530;2023-04-28T12:19:17;1.47;;;1.00;;
13425;SDS011;6785;57.918;12.530;2023-04-28T12:21:58;1.20;;;1.10;;
13425;SDS011;6785;57.918;12.530;2023-04-28T12:24:26;2.90;;;1.00;;
13425;SDS011;6785;57.918;12.530;2023-04-28T12:26:53;1.17;;;0.90;;
13425;SDS011;6785;57.918;12.530;2023-04-28T12:32:11;17.57;;;3.43;;
13425;SDS011;6785;57.918;12.530;2023-04-28T12:34:38;3.13;;;1.30;;
13425;SDS011;6785;57.918;12.530;2023-04-28T12:37:07;1.20;;;1.07;;
13425;SDS011;6785;57.918;12.530;2023-04-28T12:39:35;0.97;;;0.90;;
13425;SDS011;6785;57.918;12.530;2023-04-28T12:42:02;1.83;;;1.20;;
13425;SDS011;6785;57.918;12.530;2023-04-28T12:44:33;4.37;;;1.30;;
13425;SDS011;6785;57.918;12.530;2023-04-28T12:47:01;2.10;;;1.00;;
13425;SDS011;6785;57.918;12.530;2023-04-28T12:49:29;1.43;;;1.10;;
13425;SDS011;6785;57.918;12.530;2023-04-28T12:51:56;1.20;;;1.10;;
13425;SDS011;6785;57.918;12.530;2023-04-28T12:54:24;1.07;;;1.00;;
13425;SDS011;6785;57.918;12.530;2023-04-28T12:56:50;2.07;;;1.10;;
13425;SDS011;6785;57.918;12.530;2023-04-28T12:59:18;3.07;;;1.07;;
13425;SDS011;6785;57.918;12.530;2023-04-28T13:01:45;1.10;;;1.00;;
13425;SDS011;6785;57.918;12.530;2023-04-28T13:04:12;1.90;;;1.10;;
13425;SDS011;6785;57.918;12.530;2023-04-28T13:06:38;1.20;;;1.00;;
13425;SDS011;6785;57.918;12.530;2023-04-28T13:09:08;3.30;;;1.30;;
13425;SDS011;6785;57.918;12.530;2023-04-28T13:11:37;2.80;;;1.20;;
13425;SDS011;6785;57.918;12.530;2023-04-28T13:14:04;1.07;;;0.97;;
13425;SDS011;6785;57.918;12.530;2023-04-28T13:16:30;1.53;;;1.10;;
13425;SDS011;6785;57.918;12.530;2023-04-28T13:18:58;2.10;;;1.00;;
13425;SDS011;6785;57.918;12.530;2023-04-28T13:21:25;1.57;;;1.07;;
13425;SDS011;6785;57.918;12.530;2023-04-28T13:23:53;1.20;;;1.10;;
13425;SDS011;6785;57.918;12.530;2023-04-28T13:26:20;1.20;;;1.10;;
13425;SDS011;6785;57.918;12.530;2023-04-28T13:28:51;3.93;;;1.10;;
13425;SDS011;6785;57.918;12.530;2023-04-28T13:31:18;1.30;;;1.20;;
13425;SDS011;6785;57.918;12.530;2023-04-28T13:33:45;3.40;;;1.27;;
13425;SDS011;6785;57.918;12.530;2023-04-28T13:36:12;4.67;;;1.40;;
13425;SDS011;6785;57.918;12.530;2023-04-28T13:38:39;2.53;;;1.27;;
13425;SDS011;6785;57.918;12.530;2023-04-28T13:41:05;6.73;;;2.27;;
13425;SDS011;6785;57.918;12.530;2023-04-28T13:43:32;11.03;;;2.00;;
13425;SDS011;6785;57.918;12.530;2023-04-28T13:46:01;5.70;;;2.00;;
13425;SDS011;6785;57.918;12.530;2023-04-28T13:48:32;4.57;;;2.27;;
13425;SDS011;6785;57.918;12.530;2023-04-28T13:50:59;4.37;;;1.77;;
13425;SDS011;6785;57.918;12.530;2023-04-28T13:53:26;3.57;;;1.20;;
13425;SDS011;6785;57.918;12.530;2023-04-28T13:55:52;1.77;;;1.50;;
13425;SDS011;6785;57.918;12.530;2023-04-28T13:58:21;4.27;;;1.60;;
13425;SDS011;6785;57.918;12.530;2023-04-28T14:00:48;2.10;;;1.20;;
13425;SDS011;6785;57.918;12.530;2023-04-28T14:03:16;24.00;;;3.83;;
13425;SDS011;6785;57.918;12.530;2023-04-28T14:05:43;2.13;;;1.20;;
13425;SDS011;6785;57.918;12.530;2023-04-28T14:08:10;1.53;;;1.10;;
13425;SDS011;6785;57.918;12.530;2023-04-28T14:10:36;1.17;;;1.07;;
13425;SDS011;6785;57.918;12.530;2023-04-28T14:13:03;4.30;;;1.30;;
13425;SDS011;6785;57.918;12.530;2023-04-28T14:15:30;1.60;;;1.23;;
13425;SDS011;6785;57.918;12.530;2023-04-28T14:17:57;2.43;;;1.00;;
13425;SDS011;6785;57.918;12.530;2023-04-28T14:20:25;5.30;;;1.57;;
13425;SDS011;6785;57.918;12.530;2023-04-28T14:22:52;2.27;;;1.20;;
13425;SDS011;6785;57.918;12.530;2023-04-28T14:25:19;3.40;;;1.27;;
13425;SDS011;6785;57.918;12.530;2023-04-28T14:27:47;2.93;;;1.30;;
13425;SDS011;6785;57.918;12.530;2023-04-28T14:30:14;1.33;;;1.23;;
13425;SDS011;6785;57.918;12.530;2023-04-28T14:32:41;1.60;;;1.10;;
13425;SDS011;6785;57.918;12.530;2023-04-28T14:35:09;1.80;;;1.23;;
13425;SDS011;6785;57.918;12.530;2023-04-28T14:37:38;1.93;;;1.10;;
13425;SDS011;6785;57.918;12.530;2023-04-28T14:40:05;1.13;;;1.10;;
13425;SDS011;6785;57.918;12.530;2023-04-28T14:42:33;2.97;;;1.40;;
13425;SDS011;6785;57.918;12.530;2023-04-28T14:45:01;4.27;;;1.27;;
13425;SDS011;6785;57.918;12.530;2023-04-28T14:47:29;1.73;;;1.40;;
13425;SDS011;6785;57.918;12.530;2023-04-28T14:49:56;1.93;;;1.10;;
13425;SDS011;6785;57.918;12.530;2023-04-28T14:52:23;2.47;;;1.37;;
13425;SDS011;6785;57.918;12.530;2023-04-28T14:54:54;2.37;;;1.23;;
13425;SDS011;6785;57.918;12.530;2023-04-28T14:57:22;7.10;;;1.47;;
13425;SDS011;6785;57.918;12.530;2023-04-28T14:59:49;2.87;;;1.13;;
13425;SDS011;6785;57.918;12.530;2023-04-28T15:02:17;9.13;;;1.47;;
13425;SDS011;6785;57.918;12.530;2023-04-28T15:04:45;1.63;;;1.10;;
13425;SDS011;6785;57.918;12.530;2023-04-28T15:07:12;1.90;;;1.17;;